Bei Facebook empfehlenBei Twitter postenGoogle plusPinterest

Das Wetter im Erzgebirge am 02.08.2016

Wetter und Klima am 02.08.2016 Holzhau im Erzgebirge (630m ü.NN)
Letzte gemessene Temperatur und Uhrzeit der Messung23:45:00 Uhr13.20 °C
Temperatur (Maximum / Höchstwert) und Uhrzeit der Messung16:00:00 Uhr18.20 °C
Temperatur (Minimum / Tiefstwert) und Uhrzeit der Messung03:45:006.20 °C
Errechneter Absolutwert der Temperaturschwankungen zwischen Tmin und Tmax des Tages12.00 K
Errechnete Tagesmitteltemperatur12.57188 °C
Gesamt - Niederschlag des Tages (in flüssiger Form)0.00 Liter / m²
Luftdruck (Maximum / Höchstwert) und Zeitpunkt der Messung00:30:00 Uhr1017.50 hPa
Luftdruck (Minimum / Tiefstwert) und Zeitpunkt der Messung19:15:00 Uhr1013.80 hPa
Errechneter Absolutwert der Luftdruckschwankungen des Tages3.70 hPa
Höchste gemessene Windgeschwindigkeit und Uhrzeit der Messung23:45:00 Uhr0.00 km/h
Errechnete Windhäufigkeit in Relation zu den Messwerten des Tages0.00000 %
Niedrigste Windkühle (Windchill) und Zeitpunkt der Messung03:45:00 Uhr6.20 °C
Taupunkt (Maximum / Höchstwert) und Uhrzeit der Messung08:45:00 Uhr14.90 °C
Taupunkt (Minimum / Tiefstwert) und Uhrzeit der Messung03:30:004.80 °C
Anzahl der automatisch eingelesenen Messwerte 96

Detaillierte Wetter- und Klima- Messwerte für den 02.08.2016 in Holzhau im Erzgebirge (630m ü.NN)
ZeitTemperaturLuftdruckRel. LuftfeuchteWindWindrichtungWindchillTaupunktNiederschlag l/m²
23:45:0013.20 °C1014.70 hPa90.00 %11.60 °C 
23:30:0013.30 °C1014.60 hPa89.00 %11.50 °C 
23:15:0013.30 °C1014.50 hPa89.00 %11.50 °C 
23:00:0013.30 °C1014.40 hPa88.00 %11.40 °C 
22:45:0013.40 °C1014.30 hPa88.00 %11.50 °C 
22:30:0013.40 °C1014.40 hPa88.00 %11.50 °C 
22:15:0013.40 °C1014.30 hPa88.00 %11.50 °C 
22:00:0013.40 °C1014.50 hPa88.00 %11.50 °C 
21:45:0013.40 °C1014.10 hPa88.00 %11.50 °C 
21:30:0013.60 °C1014.20 hPa87.00 %11.50 °C 
21:15:0013.60 °C1014.30 hPa87.00 %11.50 °C 
21:00:0013.80 °C1014.10 hPa87.00 %11.70 °C 
20:45:0013.80 °C1014.00 hPa86.00 %11.50 °C 
20:30:0014.00 °C1014.10 hPa86.00 %11.70 °C 
20:15:0014.40 °C1014.10 hPa84.00 %11.70 °C 
20:00:0014.60 °C1014.00 hPa83.00 %11.70 °C 
19:45:0014.80 °C1013.90 hPa83.00 %11.90 °C 
19:30:0014.90 °C1013.90 hPa82.00 %11.90 °C 
19:15:0015.10 °C1013.80 hPa82.00 %12.10 °C 
19:00:0015.00 °C1014.00 hPa82.00 %12.00 °C 
18:45:0015.00 °C1014.00 hPa83.00 %12.10 °C 
18:30:0014.90 °C1014.20 hPa82.00 %11.90 °C 
18:15:0014.90 °C1014.20 hPa82.00 %11.90 °C 
18:00:0015.20 °C1014.30 hPa82.00 %12.10 °C 
17:45:0015.30 °C1014.20 hPa81.00 %12.10 °C 
17:30:0015.30 °C1014.30 hPa80.00 %11.90 °C 
17:15:0015.60 °C1014.40 hPa79.00 %12.00 °C 
17:00:0016.10 °C1014.50 hPa78.00 %12.30 °C 
16:45:0016.40 °C1014.40 hPa77.00 %12.40 °C 
16:30:0016.40 °C1014.50 hPa76.00 %12.20 °C 
16:15:0017.40 °C1014.50 hPa74.00 %12.70 °C 
16:00:0018.20 °C1014.60 hPa74.00 %13.50 °C 
15:45:0017.80 °C1014.60 hPa74.00 %13.10 °C 
15:30:0017.80 °C1014.70 hPa74.00 %13.10 °C 
15:15:0017.50 °C1014.80 hPa73.00 %12.60 °C 
15:00:0017.90 °C1014.80 hPa77.00 %13.80 °C 
14:45:0016.20 °C1014.80 hPa81.00 %12.90 °C 
14:30:0015.50 °C1014.90 hPa82.00 %12.40 °C 
14:15:0015.20 °C1015.10 hPa82.00 %12.10 °C 
14:00:0015.50 °C1015.10 hPa83.00 %12.60 °C 
13:45:0015.50 °C1015.30 hPa83.00 %12.60 °C 
13:30:0015.90 °C1015.30 hPa85.00 %13.40 °C 
13:15:0015.80 °C1015.40 hPa86.00 %13.50 °C 
13:00:0014.90 °C1015.40 hPa86.00 %12.60 °C 
12:45:0014.40 °C1015.50 hPa84.00 %11.70 °C 
12:30:0014.40 °C1015.30 hPa83.00 %11.60 °C 
12:15:0014.90 °C1015.20 hPa81.00 %11.70 °C 
12:00:0015.80 °C1015.20 hPa80.00 %12.40 °C 
11:45:0016.10 °C1015.40 hPa80.00 %12.70 °C 
11:30:0015.90 °C1015.70 hPa82.00 %12.80 °C 
11:15:0015.00 °C1015.50 hPa82.00 %12.00 °C 
11:00:0014.90 °C1015.90 hPa82.00 %11.90 °C 
10:45:0014.90 °C1015.90 hPa82.00 %11.90 °C 
10:30:0014.90 °C1015.70 hPa82.00 %11.90 °C 
10:15:0014.40 °C1015.90 hPa81.00 %11.20 °C 
10:00:0014.70 °C1016.00 hPa79.00 %11.10 °C 
09:45:0015.60 °C1016.00 hPa77.00 %11.60 °C 
09:30:0017.40 °C1015.90 hPa79.00 %13.70 °C 
09:15:0017.30 °C1015.10 hPa84.00 %14.60 °C 
09:00:0016.60 °C1015.20 hPa88.00 %14.60 °C 
08:45:0016.40 °C1015.10 hPa91.00 %14.90 °C 
08:30:0015.50 °C1015.00 hPa93.00 %14.40 °C 
08:15:0014.40 °C1015.00 hPa94.00 %13.40 °C 
08:00:0012.90 °C1015.20 hPa94.00 %12.00 °C 
07:45:0012.10 °C1015.20 hPa94.00 %11.20 °C 
07:30:0010.60 °C1015.40 hPa94.00 %9.70 °C 
07:15:009.40 °C1015.20 hPa94.00 %8.50 °C 
07:00:008.50 °C1015.50 hPa93.00 %7.40 °C 
06:45:007.90 °C1015.50 hPa93.00 %6.80 °C 
06:30:007.80 °C1015.50 hPa93.00 %6.70 °C 
06:15:007.40 °C1015.30 hPa93.00 %6.30 °C 
06:00:007.00 °C1015.40 hPa93.00 %5.90 °C 
05:45:006.90 °C1015.50 hPa93.00 %5.80 °C 
05:30:006.90 °C1015.70 hPa93.00 %5.80 °C 
05:15:006.90 °C1015.90 hPa93.00 %5.80 °C 
05:00:006.90 °C1015.80 hPa93.00 %5.80 °C 
04:45:006.90 °C1015.90 hPa92.00 %5.70 °C 
04:30:006.80 °C1016.00 hPa92.00 %5.60 °C 
04:15:006.50 °C1016.20 hPa92.00 %5.30 °C 
04:00:006.40 °C1016.10 hPa92.00 %5.20 °C 
03:45:006.20 °C1016.30 hPa92.00 %5.00 °C 
03:30:006.20 °C1016.40 hPa91.00 %4.80 °C 
03:15:006.30 °C1016.60 hPa91.00 %4.90 °C 
03:00:006.40 °C1016.50 hPa92.00 %5.20 °C 
02:45:006.40 °C1016.50 hPa92.00 %5.20 °C 
02:30:006.50 °C1016.80 hPa91.00 %5.10 °C 
02:15:006.60 °C1016.80 hPa91.00 %5.20 °C 
02:00:006.80 °C1016.90 hPa91.00 %5.40 °C 
01:45:006.90 °C1017.00 hPa91.00 %5.50 °C 
01:30:007.10 °C1017.00 hPa90.00 %5.60 °C 
01:15:007.40 °C1017.00 hPa90.00 %5.90 °C 
01:00:007.50 °C1017.20 hPa90.00 %6.00 °C 
00:45:007.60 °C1017.10 hPa90.00 %6.10 °C 
00:30:007.80 °C1017.50 hPa89.00 %6.10 °C 
00:15:007.90 °C1017.40 hPa89.00 %6.20 °C 
00:00:008.10 °C1017.50 hPa89.00 %6.40 °C 

Permanenter Link zu dieser Seite: Wetter im Erzgebirge am 02.08.2016
Performance-Info: Die Erstellung der Seite / Statistik(en) / Tabelle(n) erforderte 5 Datenbankserver-Abfrage(n) und dauerte 100 Millisekunden. (Dieser Messwert ist von der Gesamt-Auslastung des Servers abhängig.)
Erzgebirge - Wetter | Erzgebirge - Wetter (Mobilgeräte) | Komplette Klimadatenbank